TimeHST,TemperatureF,Dew PointF,Humidity,Sea Level PressureIn,VisibilityMPH,Wind Direction,Wind SpeedMPH,Gust SpeedMPH,PrecipitationIn,Events,Conditions,WindDirDegrees,DateUTC
12:54 AM,71.1,66.9,87,30.05,10.0,NNE,3.5,-,N/A,,Clear,30,2013-07-05 10:54:00
1:54 AM,71.1,66.9,87,30.04,10.0,NNE,5.8,-,N/A,,Clear,30,2013-07-05 11:54:00
2:54 AM,71.1,66.9,87,30.03,10.0,NNE,6.9,-,N/A,,Clear,30,2013-07-05 12:54:00
3:54 AM,70.0,66.9,90,30.03,10.0,NNE,6.9,-,N/A,,Clear,30,2013-07-05 13:54:00
4:54 AM,69.1,66.9,93,30.03,10.0,NNE,5.8,-,N/A,,Clear,30,2013-07-05 14:54:00
5:54 AM,69.1,66.9,93,30.04,10.0,NNE,4.6,-,N/A,,Clear,20,2013-07-05 15:54:00
6:54 AM,73.0,69.1,87,30.05,10.0,NNE,5.8,-,N/A,,Clear,20,2013-07-05 16:54:00
7:54 AM,75.0,69.1,82,30.06,10.0,NNE,6.9,-,N/A,,Clear,30,2013-07-05 17:54:00
8:54 AM,78.1,68.0,71,30.07,10.0,NNE,6.9,-,N/A,,Scattered Clouds,20,2013-07-05 18:54:00
9:54 AM,79.0,68.0,69,30.06,10.0,North,9.2,-,N/A,,Scattered Clouds,10,2013-07-05 19:54:00
10:54 AM,80.1,69.1,69,30.06,10.0,North,11.5,16.1,N/A,,Scattered Clouds,10,2013-07-05 20:54:00
11:54 AM,80.1,69.1,69,30.06,10.0,North,10.4,17.3,N/A,,Partly Cloudy,10,2013-07-05 21:54:00
12:54 PM,78.1,68.0,71,30.04,10.0,North,16.1,23.0,N/A,,Clear,10,2013-07-05 22:54:00
1:54 PM,80.1,68.0,67,30.03,10.0,NNE,11.5,21.9,N/A,,Partly Cloudy,20,2013-07-05 23:54:00
2:54 PM,80.1,68.0,67,30.01,10.0,NNE,11.5,19.6,N/A,,Partly Cloudy,20,2013-07-06 00:54:00
3:54 PM,79.0,68.0,69,30.00,10.0,NNE,12.7,20.7,N/A,,Scattered Clouds,30,2013-07-06 01:54:00
4:54 PM,78.1,68.0,71,29.99,10.0,NNE,11.5,19.6,N/A,,Scattered Clouds,20,2013-07-06 02:54:00
5:54 PM,77.0,69.1,76,29.99,10.0,North,12.7,19.6,N/A,,Partly Cloudy,10,2013-07-06 03:54:00
6:54 PM,73.9,68.0,82,30.01,10.0,NNE,9.2,-,N/A,,Partly Cloudy,20,2013-07-06 04:54:00
7:54 PM,73.0,68.0,84,30.03,10.0,NNE,8.1,-,N/A,,Clear,20,2013-07-06 05:54:00
8:54 PM,72.0,68.0,87,30.04,10.0,NNE,5.8,-,N/A,,Clear,20,2013-07-06 06:54:00
9:54 PM,72.0,69.1,91,30.06,10.0,NNE,5.8,-,N/A,,Clear,30,2013-07-06 07:54:00
10:54 PM,71.1,69.1,93,30.07,10.0,NNE,5.8,-,N/A,,Clear,30,2013-07-06 08:54:00
11:54 PM,71.1,69.1,93,30.06,10.0,NNE,5.8,-,N/A,,Clear,20,2013-07-06 09:54:00